createdAt,value
2017-06-16T00:01:14.851Z,15.4
2017-06-16T00:02:33.561Z,15.3
2017-06-16T00:03:52.246Z,15.3
2017-06-16T00:05:10.923Z,15.3
2017-06-16T00:06:29.638Z,15.2
2017-06-16T00:07:48.351Z,15.2
2017-06-16T00:09:07.078Z,15.1
2017-06-16T00:10:25.771Z,15.1
2017-06-16T00:11:44.476Z,15
2017-06-16T00:13:03.200Z,15
2017-06-16T00:14:21.904Z,14.9
2017-06-16T00:15:40.583Z,14.9
2017-06-16T00:16:59.283Z,14.9
2017-06-16T00:18:17.996Z,14.9
2017-06-16T00:19:36.669Z,14.9
2017-06-16T00:20:55.365Z,14.9
2017-06-16T00:22:14.115Z,14.9
2017-06-16T00:23:32.824Z,15
2017-06-16T00:24:51.550Z,15
2017-06-16T00:26:10.217Z,15.1
2017-06-16T00:27:28.937Z,15.2
2017-06-16T00:28:47.652Z,15.2
2017-06-16T00:30:06.333Z,15.1
2017-06-16T00:31:25.012Z,15.1
2017-06-16T00:32:43.758Z,14.9
2017-06-16T00:34:02.435Z,14.8
2017-06-16T00:35:21.106Z,14.8
2017-06-16T00:36:39.775Z,14.8
2017-06-16T00:37:58.481Z,14.8
2017-06-16T00:39:17.198Z,14.8
2017-06-16T00:40:35.912Z,14.8
2017-06-16T00:41:54.612Z,14.8
2017-06-16T00:43:13.308Z,14.8
2017-06-16T00:44:32.032Z,14.8
2017-06-16T00:45:50.735Z,14.8
2017-06-16T00:47:09.441Z,14.7
2017-06-16T00:48:28.143Z,14.7
2017-06-16T00:49:46.857Z,14.6
2017-06-16T00:51:05.569Z,14.6
2017-06-16T00:52:24.246Z,14.6
2017-06-16T00:53:42.990Z,14.7
2017-06-16T00:55:01.674Z,14.8
2017-06-16T00:56:20.341Z,14.9
2017-06-16T00:57:39.047Z,14.9
2017-06-16T00:58:57.740Z,15
2017-06-16T01:00:16.409Z,15
2017-06-16T01:01:35.134Z,14.9
2017-06-16T01:02:53.827Z,14.8
2017-06-16T01:04:12.537Z,14.7
2017-06-16T01:05:31.216Z,14.6
2017-06-16T01:06:49.887Z,14.6
2017-06-16T01:08:08.561Z,14.5
2017-06-16T01:09:27.245Z,14.5
2017-06-16T01:10:45.990Z,14.5
2017-06-16T01:12:04.671Z,14.6
2017-06-16T01:13:23.341Z,14.6
2017-06-16T01:14:42.033Z,14.6
2017-06-16T01:16:00.756Z,14.6
2017-06-16T01:17:19.485Z,14.7
2017-06-16T01:18:38.159Z,14.8
2017-06-16T01:19:56.836Z,14.8
2017-06-16T01:21:15.558Z,14.9
2017-06-16T01:22:34.235Z,14.8
2017-06-16T01:23:52.905Z,14.8
2017-06-16T01:25:11.609Z,14.8
2017-06-16T01:26:30.356Z,14.7
2017-06-16T01:27:49.054Z,14.7
2017-06-16T01:29:07.727Z,14.7
2017-06-16T01:30:26.409Z,14.7
2017-06-16T01:31:45.087Z,14.6
2017-06-16T01:33:03.798Z,14.6
2017-06-16T01:34:22.472Z,14.6
2017-06-16T01:35:41.211Z,14.6
2017-06-16T01:36:59.885Z,14.6
2017-06-16T01:38:18.591Z,14.6
2017-06-16T01:39:37.334Z,14.6
2017-06-16T01:40:56.079Z,14.5
2017-06-16T01:42:14.775Z,14.5
2017-06-16T01:43:33.490Z,14.6
2017-06-16T01:44:52.162Z,14.6
2017-06-16T01:46:10.864Z,14.6
2017-06-16T01:47:29.567Z,14.7
2017-06-16T01:48:48.231Z,14.7
2017-06-16T01:50:06.946Z,14.8
2017-06-16T01:51:25.651Z,14.8
2017-06-16T01:52:44.364Z,14.8
2017-06-16T01:54:03.082Z,14.7
2017-06-16T01:55:21.756Z,14.7
2017-06-16T01:56:40.430Z,14.6
2017-06-16T01:57:59.158Z,14.6
2017-06-16T01:59:17.865Z,14.5
2017-06-16T02:00:36.604Z,14.5
2017-06-16T02:01:55.348Z,14.5
2017-06-16T02:03:14.044Z,14.5
2017-06-16T02:04:32.734Z,14.5
2017-06-16T02:05:51.408Z,14.5
2017-06-16T02:07:10.129Z,14.5
2017-06-16T02:08:28.880Z,14.5
2017-06-16T02:09:47.560Z,14.5
2017-06-16T02:11:06.231Z,14.5
2017-06-16T02:12:24.934Z,14.4
2017-06-16T02:13:43.673Z,14.4
2017-06-16T02:15:02.401Z,14.4
2017-06-16T02:16:21.079Z,14.4
2017-06-16T02:17:39.808Z,14.4
2017-06-16T02:18:58.509Z,14.4
2017-06-16T02:20:17.183Z,14.4
2017-06-16T02:21:35.905Z,14.3
2017-06-16T02:22:54.620Z,14.2
2017-06-16T02:24:13.304Z,14.2
2017-06-16T02:25:31.979Z,14.1
2017-06-16T02:26:50.645Z,14.1
2017-06-16T02:28:09.378Z,14
2017-06-16T02:29:28.057Z,14
2017-06-16T02:30:46.765Z,13.9
2017-06-16T02:32:05.445Z,13.9
2017-06-16T02:33:24.195Z,13.9
2017-06-16T02:34:42.884Z,13.9
2017-06-16T02:36:01.586Z,13.9
2017-06-16T02:37:20.257Z,13.9
2017-06-16T02:38:39.030Z,13.9
2017-06-16T02:39:57.702Z,13.9
2017-06-16T02:41:16.414Z,14
2017-06-16T02:42:35.086Z,14.1
2017-06-16T02:43:53.779Z,14.2
2017-06-16T02:45:12.497Z,14.3
2017-06-16T02:46:31.168Z,14.3
2017-06-16T02:47:49.865Z,14.4
2017-06-16T02:49:08.592Z,14.4
2017-06-16T02:50:27.318Z,14.4
2017-06-16T02:51:46.046Z,14.4
2017-06-16T02:53:04.749Z,14.4
2017-06-16T02:54:23.479Z,14.3
2017-06-16T02:55:42.150Z,14.3
2017-06-16T02:57:00.822Z,14.2
2017-06-16T02:58:19.547Z,14.1
2017-06-16T02:59:38.240Z,14.2
2017-06-16T03:00:56.932Z,14.2
2017-06-16T03:02:15.606Z,14.4
2017-06-16T03:03:34.283Z,14.4
2017-06-16T03:04:53.014Z,14.4
2017-06-16T03:06:11.692Z,14.4
2017-06-16T03:07:30.366Z,14.4
2017-06-16T03:08:49.060Z,14.4
2017-06-16T03:10:07.775Z,14.3
2017-06-16T03:11:26.498Z,14.3
2017-06-16T03:12:45.172Z,14.3
2017-06-16T03:14:03.869Z,14.3
2017-06-16T03:15:22.588Z,14.3
2017-06-16T03:16:41.323Z,14.2
2017-06-16T03:17:59.999Z,14.1
2017-06-16T03:19:18.672Z,14.1
2017-06-16T03:20:37.429Z,14.1
2017-06-16T03:21:56.095Z,14.2
2017-06-16T03:23:14.764Z,14.2
2017-06-16T03:24:33.475Z,14.2
2017-06-16T03:25:52.167Z,14.2
2017-06-16T03:27:10.835Z,14.2
2017-06-16T03:28:29.564Z,14.1
2017-06-16T03:29:48.235Z,14.1
2017-06-16T03:31:06.968Z,14.1
2017-06-16T03:32:25.722Z,14.1
2017-06-16T03:33:44.391Z,14.1
2017-06-16T03:35:03.064Z,14.1
2017-06-16T03:36:21.761Z,14.1
2017-06-16T03:37:40.433Z,14.1
2017-06-16T03:38:59.134Z,14.1
2017-06-16T03:40:17.854Z,14.1
2017-06-16T03:41:36.565Z,14
2017-06-16T03:42:55.243Z,14
2017-06-16T03:44:13.951Z,14
2017-06-16T03:45:32.668Z,14
2017-06-16T03:46:51.420Z,14
2017-06-16T03:48:10.105Z,13.9
2017-06-16T03:49:28.841Z,13.9
2017-06-16T03:50:47.562Z,13.8
2017-06-16T03:52:06.290Z,13.8
2017-06-16T03:53:24.961Z,13.8
2017-06-16T03:54:43.623Z,13.8
2017-06-16T03:56:02.344Z,13.8
2017-06-16T03:57:21.041Z,13.9
2017-06-16T03:58:39.744Z,14
2017-06-16T03:59:58.462Z,14
2017-06-16T04:01:17.186Z,14
2017-06-16T04:02:35.857Z,14
2017-06-16T04:03:54.606Z,14
2017-06-16T04:05:13.301Z,14
2017-06-16T04:06:32.004Z,14
2017-06-16T04:07:50.681Z,14.1
2017-06-16T04:09:09.360Z,14.1
2017-06-16T04:10:28.029Z,14.1
2017-06-16T04:11:46.747Z,14.1
2017-06-16T04:13:05.446Z,14.1
2017-06-16T04:14:24.166Z,14.1
2017-06-16T04:15:42.854Z,14.1
2017-06-16T04:17:01.597Z,14.1
2017-06-16T04:18:20.353Z,14.1
2017-06-16T04:19:39.105Z,14.1
2017-06-16T04:20:57.821Z,14.1
2017-06-16T04:22:16.491Z,14.1
2017-06-16T04:23:35.181Z,14.1
2017-06-16T04:24:53.868Z,14.1
2017-06-16T04:26:12.584Z,14.2
2017-06-16T04:27:31.307Z,14.2
2017-06-16T04:28:49.999Z,14.1
2017-06-16T04:30:08.674Z,14.2
2017-06-16T04:31:27.404Z,14.2
2017-06-16T04:32:46.112Z,14.2
2017-06-16T04:34:04.808Z,14.2
2017-06-16T04:35:23.514Z,14.2
2017-06-16T04:36:42.234Z,14.3
2017-06-16T04:38:00.935Z,14.4
2017-06-16T04:39:19.645Z,14.5
2017-06-16T04:40:38.341Z,14.5
2017-06-16T04:41:57.052Z,14.6
2017-06-16T04:43:15.723Z,14.6
2017-06-16T04:44:34.420Z,14.6
2017-06-16T04:45:53.090Z,14.7
2017-06-16T04:47:11.808Z,14.8
2017-06-16T04:48:30.475Z,14.8
2017-06-16T04:49:49.176Z,14.9
2017-06-16T04:51:07.864Z,14.9
2017-06-16T04:52:26.594Z,15
2017-06-16T04:53:45.324Z,15
2017-06-16T04:55:04.091Z,15.1
2017-06-16T04:56:22.802Z,15.1
2017-06-16T04:57:41.514Z,15.1
2017-06-16T04:59:00.240Z,15.2
2017-06-16T05:00:18.960Z,15.2
2017-06-16T05:01:37.675Z,15.2
2017-06-16T05:02:56.350Z,15.3
2017-06-16T05:04:15.092Z,15.3
2017-06-16T05:05:33.800Z,15.3
2017-06-16T05:06:52.497Z,15.3
2017-06-16T05:08:11.201Z,15.4
2017-06-16T05:09:29.873Z,15.4
2017-06-16T05:10:48.569Z,15.4
2017-06-16T05:12:07.247Z,15.5
2017-06-16T05:13:25.931Z,15.5
2017-06-16T05:14:44.597Z,15.5
2017-06-16T05:16:03.346Z,15.6
2017-06-16T05:17:22.017Z,15.6
2017-06-16T05:18:40.689Z,15.7
2017-06-16T05:19:59.358Z,15.7
2017-06-16T05:21:18.057Z,15.7
2017-06-16T05:22:36.788Z,15.8
2017-06-16T05:23:55.453Z,15.8
2017-06-16T05:25:14.137Z,15.7
2017-06-16T05:26:32.836Z,15.8
2017-06-16T05:27:51.554Z,15.8
2017-06-16T05:29:10.287Z,16
2017-06-16T05:30:28.990Z,16.2
2017-06-16T05:31:47.666Z,16.3
2017-06-16T05:33:06.339Z,16.3
2017-06-16T05:34:25.007Z,16.2
2017-06-16T05:35:43.676Z,16.1
2017-06-16T05:37:02.423Z,16
2017-06-16T05:38:21.104Z,15.9
2017-06-16T05:39:39.769Z,15.8
2017-06-16T05:40:58.437Z,15.7
2017-06-16T05:42:17.107Z,15.7
2017-06-16T05:43:35.782Z,15.6
2017-06-16T05:44:54.445Z,15.6
2017-06-16T05:46:13.123Z,15.7
2017-06-16T05:47:31.827Z,15.9
2017-06-16T05:48:50.529Z,16.1
2017-06-16T05:50:09.198Z,16.2
2017-06-16T05:51:27.891Z,16.3
2017-06-16T05:52:46.569Z,16.4
2017-06-16T05:54:05.263Z,16.5
2017-06-16T05:55:24.012Z,16.5
2017-06-16T05:56:42.706Z,16.4
2017-06-16T05:58:01.401Z,16.4
2017-06-16T05:59:20.073Z,16.2
2017-06-16T06:00:38.757Z,16.2
2017-06-16T06:01:57.438Z,16.2
2017-06-16T06:03:16.155Z,16.3
2017-06-16T06:04:34.836Z,16.4
2017-06-16T06:05:53.558Z,16.5
2017-06-16T06:07:12.237Z,16.6
2017-06-16T06:08:30.977Z,16.7
2017-06-16T06:09:49.656Z,16.8
2017-06-16T06:11:08.336Z,16.9
2017-06-16T06:12:27.006Z,17
2017-06-16T06:13:45.708Z,17
2017-06-16T06:15:04.413Z,17.1
2017-06-16T06:16:23.081Z,17.2
2017-06-16T06:17:41.806Z,17.2
2017-06-16T06:19:00.491Z,17.2
2017-06-16T06:20:19.216Z,17.3
2017-06-16T06:21:37.905Z,17.4
2017-06-16T06:22:56.575Z,17.4
2017-06-16T06:24:15.318Z,17.5
2017-06-16T06:25:34.025Z,17.6
2017-06-16T06:26:52.751Z,17.7
2017-06-16T06:28:11.467Z,17.8
2017-06-16T06:29:30.205Z,18
2017-06-16T06:30:48.903Z,18.1
2017-06-16T06:32:07.575Z,18.3
2017-06-16T06:33:26.289Z,18.5
2017-06-16T06:34:44.970Z,18.8
2017-06-16T06:36:03.647Z,18.5
2017-06-16T06:37:22.398Z,18.5
2017-06-16T06:38:41.066Z,18.5
2017-06-16T06:39:59.772Z,18.6
2017-06-16T06:41:18.492Z,18.5
2017-06-16T06:42:37.166Z,18.4
2017-06-16T06:43:55.845Z,18.3
2017-06-16T06:45:14.588Z,18.3
2017-06-16T06:46:33.308Z,18.2
2017-06-16T06:47:52.025Z,18.3
2017-06-16T06:49:10.685Z,18.2
2017-06-16T06:50:29.365Z,18.3
2017-06-16T06:51:48.037Z,18.6
2017-06-16T06:53:06.707Z,18.8
2017-06-16T06:54:25.386Z,18.8
2017-06-16T06:55:44.120Z,18.9
2017-06-16T06:57:02.833Z,18.9
2017-06-16T06:58:21.557Z,19
2017-06-16T06:59:40.219Z,18.9
2017-06-16T07:00:58.976Z,18.9
2017-06-16T07:02:17.703Z,19
2017-06-16T07:03:36.426Z,19.3
2017-06-16T07:04:55.101Z,19.7
2017-06-16T07:06:13.815Z,20.3
2017-06-16T07:07:32.481Z,20.5
2017-06-16T07:08:51.178Z,20.5
2017-06-16T07:10:09.860Z,20.8
2017-06-16T07:11:28.581Z,21
2017-06-16T07:12:47.333Z,20.9
2017-06-16T07:14:06.043Z,20.6
2017-06-16T07:15:24.757Z,20.4
2017-06-16T07:16:43.486Z,20.3
2017-06-16T07:18:02.207Z,20.2
2017-06-16T07:19:20.875Z,20.1
2017-06-16T07:20:39.569Z,19.7
2017-06-16T07:21:58.268Z,19.4
2017-06-16T07:23:16.945Z,19.2
2017-06-16T07:24:35.620Z,19.1
2017-06-16T07:25:54.350Z,18.8
2017-06-16T07:27:13.051Z,18.4
2017-06-16T07:28:31.733Z,18
2017-06-16T07:29:50.454Z,18.1
2017-06-16T07:31:09.145Z,18.1
2017-06-16T07:32:27.830Z,18.4
2017-06-16T07:33:46.545Z,18.9
2017-06-16T07:35:05.222Z,19.4
2017-06-16T07:36:23.915Z,19.7
2017-06-16T07:37:42.616Z,20
2017-06-16T07:39:01.321Z,20.4
2017-06-16T07:40:19.997Z,21.1
2017-06-16T07:41:38.710Z,21.4
2017-06-16T07:42:57.423Z,21.2
2017-06-16T07:44:16.126Z,21.1
2017-06-16T07:45:34.793Z,21.1
2017-06-16T07:46:53.464Z,21
2017-06-16T07:48:12.192Z,21
2017-06-16T07:49:30.857Z,20.8
2017-06-16T07:50:49.572Z,20.4
2017-06-16T07:52:08.305Z,20
2017-06-16T07:53:27.007Z,19.8
2017-06-16T07:54:45.682Z,19.7
2017-06-16T07:56:04.364Z,19.8
2017-06-16T07:57:23.034Z,20.2
2017-06-16T07:58:41.718Z,20.6
2017-06-16T08:00:00.411Z,21.1
2017-06-16T08:01:19.153Z,21.9
2017-06-16T08:02:37.821Z,22.1
2017-06-16T08:03:56.551Z,22
2017-06-16T08:05:15.226Z,21.7
2017-06-16T08:06:33.923Z,21.2
2017-06-16T08:07:52.599Z,20.9
2017-06-16T08:09:11.309Z,20.7
2017-06-16T08:10:30.030Z,20.7
2017-06-16T08:11:48.760Z,20.6
2017-06-16T08:13:07.498Z,20.4
2017-06-16T08:14:26.198Z,20.3
2017-06-16T08:15:44.897Z,20.1
2017-06-16T08:17:03.570Z,20
2017-06-16T08:18:22.250Z,19.7
2017-06-16T08:19:40.923Z,19.6
2017-06-16T08:20:59.591Z,19.6
2017-06-16T08:22:18.276Z,20
2017-06-16T08:23:36.948Z,20.3
2017-06-16T08:24:55.651Z,20.7
2017-06-16T08:26:14.323Z,20.8
2017-06-16T08:27:33.001Z,21
2017-06-16T08:28:51.671Z,21.1
2017-06-16T08:30:10.394Z,21.1
2017-06-16T08:31:29.127Z,21.1
2017-06-16T08:32:47.811Z,20.9
2017-06-16T08:34:06.485Z,20.5
2017-06-16T08:35:25.172Z,20.4
2017-06-16T08:36:43.860Z,20.5
2017-06-16T08:38:02.576Z,20.8
2017-06-16T08:39:21.298Z,20.8
2017-06-16T08:40:40.019Z,21
2017-06-16T08:41:58.747Z,21.4
2017-06-16T08:43:17.480Z,21.7
2017-06-16T08:44:36.194Z,21.7
2017-06-16T08:45:54.879Z,21.4
2017-06-16T08:47:13.596Z,20.9
2017-06-16T08:48:32.324Z,20.3
2017-06-16T08:49:50.997Z,19.8
2017-06-16T08:51:09.679Z,19.3
2017-06-16T08:52:28.357Z,19
2017-06-16T08:53:47.054Z,18.7
2017-06-16T08:55:05.775Z,18.3
2017-06-16T08:56:24.471Z,17.9
2017-06-16T08:57:43.140Z,17.5
2017-06-16T08:59:01.812Z,17.3
2017-06-16T09:00:20.484Z,17.1
2017-06-16T09:01:39.204Z,17.1
2017-06-16T09:02:57.948Z,17.1
2017-06-16T09:04:16.644Z,17.1
2017-06-16T09:05:35.328Z,17.1
2017-06-16T09:06:54.036Z,17.2
2017-06-16T09:08:12.758Z,17.1
2017-06-16T09:09:31.463Z,17.1
2017-06-16T09:10:50.130Z,17
2017-06-16T09:12:08.837Z,16.9
2017-06-16T09:13:27.561Z,17
2017-06-16T09:14:46.283Z,17.2
2017-06-16T09:16:04.959Z,17.6
2017-06-16T09:17:23.636Z,18.3
2017-06-16T09:18:42.387Z,18.6
2017-06-16T09:20:01.058Z,18.8
2017-06-16T09:21:19.755Z,19
2017-06-16T09:22:38.431Z,19
2017-06-16T09:23:57.113Z,19
2017-06-16T09:25:15.813Z,18.7
2017-06-16T09:26:34.487Z,18.3
2017-06-16T09:27:53.193Z,18.3
2017-06-16T09:29:11.868Z,18.6
2017-06-16T09:30:30.572Z,18.6
2017-06-16T09:31:49.252Z,18.4
2017-06-16T09:33:07.933Z,18.4
2017-06-16T09:34:26.633Z,18.4
2017-06-16T09:35:45.322Z,18.5
2017-06-16T09:37:04.018Z,18.6
2017-06-16T09:38:22.706Z,18.6
2017-06-16T09:39:41.391Z,18.8
2017-06-16T09:41:00.111Z,19.1
2017-06-16T09:42:18.803Z,19.5
2017-06-16T09:43:37.499Z,19.9
2017-06-16T09:44:56.163Z,20.4
2017-06-16T09:46:14.840Z,20.9
2017-06-16T09:47:33.560Z,21.4
2017-06-16T09:48:52.251Z,22
2017-06-16T09:50:10.955Z,22.2
2017-06-16T09:51:29.672Z,22
2017-06-16T09:52:48.338Z,21.5
2017-06-16T09:54:07.014Z,21.1
2017-06-16T09:55:25.678Z,20.9
2017-06-16T09:56:44.343Z,20.7
2017-06-16T09:58:03.053Z,20.2
2017-06-16T09:59:21.751Z,19.8
2017-06-16T10:00:40.428Z,19.5
2017-06-16T10:01:59.170Z,19.1
2017-06-16T10:03:17.840Z,18.9
2017-06-16T10:04:36.565Z,18.7
2017-06-16T10:05:55.306Z,18.5
2017-06-16T10:07:14.016Z,18.3
2017-06-16T10:08:32.718Z,18.1
2017-06-16T10:09:51.401Z,17.9
2017-06-16T10:11:10.118Z,17.9
2017-06-16T10:12:28.803Z,17.9
2017-06-16T10:13:47.472Z,17.8
2017-06-16T10:15:06.202Z,17.7
2017-06-16T10:16:24.929Z,17.6
2017-06-16T10:17:43.649Z,17.6
2017-06-16T10:19:02.400Z,17.4
2017-06-16T10:20:21.115Z,17.2
2017-06-16T10:21:39.810Z,16.9
2017-06-16T10:22:58.513Z,16.7
2017-06-16T10:24:17.184Z,16.5
2017-06-16T10:25:35.881Z,16.4
2017-06-16T10:26:54.571Z,16.4
2017-06-16T10:28:13.256Z,16.3
2017-06-16T10:29:31.933Z,16.3
2017-06-16T10:30:50.615Z,16.3
2017-06-16T10:32:09.307Z,16.5
2017-06-16T10:33:28.024Z,16.6
2017-06-16T10:34:46.707Z,16.6
2017-06-16T10:36:05.402Z,16.7
2017-06-16T10:37:24.109Z,16.8
2017-06-16T10:38:42.800Z,16.9
2017-06-16T10:40:01.502Z,17
2017-06-16T10:41:20.240Z,17
2017-06-16T10:42:38.946Z,17.1
2017-06-16T10:43:57.614Z,17.3
2017-06-16T10:45:16.339Z,17.6
2017-06-16T10:46:35.038Z,18
2017-06-16T10:47:53.780Z,18.4
2017-06-16T10:49:12.460Z,18.9
2017-06-16T10:50:31.139Z,19.3
2017-06-16T10:51:49.814Z,19.4
2017-06-16T10:53:08.507Z,19.4
2017-06-16T10:54:27.227Z,19.3
2017-06-16T10:55:45.908Z,19.3
2017-06-16T10:57:04.606Z,19.5
2017-06-16T10:58:23.282Z,19.9
2017-06-16T10:59:41.960Z,20.4
2017-06-16T11:01:00.680Z,20.7
2017-06-16T11:02:19.390Z,21.1
2017-06-16T11:03:38.067Z,21.5
2017-06-16T11:04:56.740Z,21.5
2017-06-16T11:06:15.420Z,21.4
2017-06-16T11:07:34.149Z,21.8
2017-06-16T11:08:52.859Z,22.5
2017-06-16T11:10:11.562Z,23.2
2017-06-16T11:11:30.272Z,23.6
2017-06-16T11:12:48.987Z,23.4
2017-06-16T11:14:07.674Z,23.1
2017-06-16T11:15:26.362Z,22.6
2017-06-16T11:16:45.033Z,22.4
2017-06-16T11:18:03.771Z,22.1
2017-06-16T11:19:22.471Z,22
2017-06-16T11:20:41.138Z,21.6
2017-06-16T11:21:59.863Z,21.2
2017-06-16T11:23:18.584Z,20.8
2017-06-16T11:24:37.337Z,20.5
2017-06-16T11:25:56.004Z,20.3
2017-06-16T11:27:14.681Z,20.2
2017-06-16T11:28:33.383Z,20.3
2017-06-16T11:29:52.056Z,20.2
2017-06-16T11:31:10.723Z,20.2
2017-06-16T11:32:29.419Z,20.4
2017-06-16T11:33:48.114Z,20.8
2017-06-16T11:35:06.777Z,21.1
2017-06-16T11:36:25.448Z,21.3
2017-06-16T11:37:44.141Z,21.6
2017-06-16T11:39:02.873Z,21.5
2017-06-16T11:40:21.597Z,21.7
2017-06-16T11:41:40.325Z,22.2
2017-06-16T11:42:59.021Z,22.3
2017-06-16T11:44:17.737Z,22.1
2017-06-16T11:45:36.417Z,21.9
2017-06-16T11:46:55.137Z,21.6
2017-06-16T11:48:13.829Z,21.2
2017-06-16T11:49:32.575Z,21.1
2017-06-16T11:50:51.246Z,21.2
2017-06-16T11:52:09.916Z,21.1
2017-06-16T11:53:28.584Z,20.9
2017-06-16T11:54:47.312Z,20.8
2017-06-16T11:56:06.019Z,20.7
2017-06-16T11:57:24.703Z,20.6
2017-06-16T11:58:43.369Z,20.3
2017-06-16T12:00:02.048Z,20.1
2017-06-16T12:01:20.778Z,20.1
2017-06-16T12:02:39.477Z,20
2017-06-16T12:03:58.148Z,20
2017-06-16T12:05:16.841Z,20.2
2017-06-16T12:06:35.565Z,20.4
2017-06-16T12:07:54.274Z,20.7
2017-06-16T12:09:12.951Z,20.7
2017-06-16T12:10:31.687Z,20.5
2017-06-16T12:11:50.369Z,20.2
2017-06-16T12:13:09.099Z,20.1
2017-06-16T12:14:27.809Z,20.3
2017-06-16T12:15:46.550Z,20.5
2017-06-16T12:17:05.232Z,20.8
2017-06-16T12:18:23.931Z,21.5
2017-06-16T12:19:42.610Z,22.4
2017-06-16T12:21:01.318Z,22.9
2017-06-16T12:22:19.987Z,23.2
2017-06-16T12:23:38.657Z,23.1
2017-06-16T12:24:57.407Z,22.7
2017-06-16T12:26:16.104Z,22.2
2017-06-16T12:27:34.790Z,22
2017-06-16T12:28:53.465Z,21.7
2017-06-16T12:30:12.133Z,21.4
2017-06-16T12:31:30.855Z,21.6
2017-06-16T12:32:49.578Z,22.4
2017-06-16T12:34:08.252Z,22.6
2017-06-16T12:35:26.924Z,22.6
2017-06-16T12:36:45.616Z,24.6
2017-06-16T12:38:04.340Z,25.8
2017-06-16T12:39:23.023Z,26.5
2017-06-16T12:40:41.699Z,28.2
2017-06-16T12:42:00.391Z,29.4
2017-06-16T12:43:19.113Z,29
2017-06-16T12:44:37.778Z,27.4
2017-06-16T12:45:56.443Z,27
2017-06-16T12:47:15.122Z,26.3
2017-06-16T12:48:33.840Z,26.4
2017-06-16T12:49:52.560Z,26
2017-06-16T12:51:11.229Z,25.3
2017-06-16T12:52:29.920Z,24.7
2017-06-16T12:53:48.637Z,23.8
2017-06-16T12:55:07.366Z,23.3
2017-06-16T12:56:26.090Z,23.3
2017-06-16T12:57:44.797Z,23
2017-06-16T12:59:03.478Z,23.3
2017-06-16T13:00:22.163Z,23.5
2017-06-16T13:01:40.837Z,23.4
2017-06-16T13:02:59.590Z,23
2017-06-16T13:04:18.263Z,22.4
2017-06-16T13:05:36.955Z,21.7
2017-06-16T13:06:55.630Z,21.2
2017-06-16T13:08:14.301Z,20.6
2017-06-16T13:09:33.012Z,20.4
2017-06-16T13:10:51.731Z,20
2017-06-16T13:12:10.406Z,19.7
2017-06-16T13:13:29.163Z,19.4
2017-06-16T13:14:47.843Z,19.2
2017-06-16T13:16:06.564Z,19.2
2017-06-16T13:17:25.272Z,19.2
2017-06-16T13:18:43.989Z,19.2
2017-06-16T13:20:02.682Z,19.1
2017-06-16T13:21:21.350Z,19.1
2017-06-16T13:22:40.045Z,18.9
2017-06-16T13:23:58.723Z,18.8
2017-06-16T13:25:17.481Z,19
2017-06-16T13:26:36.163Z,19.1
2017-06-16T13:27:54.867Z,19
2017-06-16T13:29:13.588Z,18.9
2017-06-16T13:30:32.322Z,18.8
2017-06-16T13:31:50.998Z,18.6
2017-06-16T13:33:09.672Z,18.4
2017-06-16T13:34:28.345Z,18.3
2017-06-16T13:35:47.008Z,18.3
2017-06-16T13:37:05.677Z,18.3
2017-06-16T13:38:24.351Z,18.6
2017-06-16T13:39:43.078Z,18.9
2017-06-16T13:41:01.796Z,19.4
2017-06-16T13:42:20.465Z,19.9
2017-06-16T13:43:39.164Z,20.6
2017-06-16T13:44:57.894Z,21.7
2017-06-16T13:46:16.639Z,22.9
2017-06-16T13:47:35.329Z,23.5
2017-06-16T13:48:54.052Z,23.4
2017-06-16T13:50:12.762Z,23.3
2017-06-16T13:51:31.435Z,24.2
2017-06-16T13:52:50.157Z,24.7
2017-06-16T13:54:08.837Z,24.6
2017-06-16T13:55:27.584Z,24.3
2017-06-16T13:56:46.287Z,24.6
2017-06-16T13:58:04.958Z,25.5
2017-06-16T13:59:23.633Z,26
2017-06-16T14:00:42.372Z,25.9
2017-06-16T14:02:01.072Z,29
2017-06-16T14:03:19.742Z,31.2
2017-06-16T14:04:38.409Z,31.3
2017-06-16T14:05:57.086Z,34.4
2017-06-16T14:07:15.809Z,33.8
2017-06-16T14:08:34.477Z,31.1
2017-06-16T14:09:53.178Z,28.9
2017-06-16T14:11:11.853Z,26.2
2017-06-16T14:12:30.578Z,24.4
2017-06-16T14:13:49.295Z,23.6
2017-06-16T14:15:08.011Z,22.9
2017-06-16T14:16:26.736Z,22.3
2017-06-16T14:17:45.411Z,21.8
2017-06-16T14:19:04.114Z,21.4
2017-06-16T14:20:22.839Z,21.1
2017-06-16T14:21:41.567Z,20.8
2017-06-16T14:23:00.244Z,20.8
2017-06-16T14:24:18.944Z,20.9
2017-06-16T14:25:37.616Z,21.4
2017-06-16T14:26:56.350Z,21.9
2017-06-16T14:28:15.027Z,21.9
2017-06-16T14:29:33.766Z,21.6
2017-06-16T14:30:52.449Z,21.4
2017-06-16T14:32:11.144Z,21.1
2017-06-16T14:33:29.819Z,20.9
2017-06-16T14:34:48.489Z,20.6
2017-06-16T14:36:07.158Z,20.4
2017-06-16T14:37:25.839Z,19.9
2017-06-16T14:38:44.564Z,19.7
2017-06-16T14:40:03.234Z,19.4
2017-06-16T14:41:21.904Z,19.2
2017-06-16T14:42:40.603Z,19
2017-06-16T14:43:59.277Z,18.8
2017-06-16T14:45:17.954Z,18.8
2017-06-16T14:46:36.627Z,18.8
2017-06-16T14:47:55.334Z,18.7
2017-06-16T14:49:14.087Z,18.6
2017-06-16T14:50:32.757Z,18.6
2017-06-16T14:51:51.421Z,18.6
2017-06-16T14:53:10.091Z,18.6
2017-06-16T14:54:28.773Z,18.6
2017-06-16T14:55:47.502Z,18.7
2017-06-16T14:57:06.202Z,18.9
2017-06-16T14:58:24.897Z,19.2
2017-06-16T14:59:43.574Z,19.6
2017-06-16T15:01:02.247Z,20.2
2017-06-16T15:02:20.910Z,20.8
2017-06-16T15:03:39.588Z,21.4
2017-06-16T15:04:58.281Z,21.8
2017-06-16T15:06:16.951Z,22.1
2017-06-16T15:07:35.618Z,22.4
2017-06-16T15:08:54.352Z,22.8
2017-06-16T15:10:13.022Z,23.3
2017-06-16T15:11:31.686Z,23.8
2017-06-16T15:12:50.356Z,24.2
2017-06-16T15:14:09.116Z,24.9
2017-06-16T15:15:27.802Z,24.7
2017-06-16T15:16:46.525Z,24.7
2017-06-16T15:18:05.196Z,24.4
2017-06-16T15:19:23.919Z,23.3
2017-06-16T15:20:42.662Z,21.9
2017-06-16T15:22:01.340Z,21.2
2017-06-16T15:23:20.045Z,21.2
2017-06-16T15:24:38.721Z,21.5
2017-06-16T15:25:57.420Z,21.5
2017-06-16T15:27:16.088Z,21.3
2017-06-16T15:28:34.766Z,20.8
2017-06-16T15:29:53.496Z,20.4
2017-06-16T15:31:12.184Z,19.8
2017-06-16T15:32:30.852Z,19.5
2017-06-16T15:33:49.572Z,19.5
2017-06-16T15:35:08.311Z,19.4
2017-06-16T15:36:27.034Z,19.3
2017-06-16T15:37:45.703Z,19.1
2017-06-16T15:39:04.378Z,19
2017-06-16T15:40:23.057Z,19
2017-06-16T15:41:41.725Z,18.9
2017-06-16T15:43:00.390Z,19
2017-06-16T15:44:19.089Z,18.7
2017-06-16T15:45:37.785Z,18.7
2017-06-16T15:46:56.501Z,18.5
2017-06-16T15:48:15.172Z,18.4
2017-06-16T15:49:33.858Z,18.4
2017-06-16T15:50:52.578Z,18.3
2017-06-16T15:52:11.285Z,18.4
2017-06-16T15:53:29.952Z,18.4
2017-06-16T15:54:48.674Z,18.4
2017-06-16T15:56:07.426Z,18.4
2017-06-16T15:57:26.135Z,18.9
2017-06-16T15:58:44.815Z,19.2
2017-06-16T16:00:03.520Z,19.5
2017-06-16T16:01:22.202Z,19.7
2017-06-16T16:02:40.873Z,20.1
2017-06-16T16:03:59.565Z,20.6
2017-06-16T16:05:18.232Z,21.2
2017-06-16T16:06:36.934Z,22.7
2017-06-16T16:07:55.612Z,27
2017-06-16T16:09:14.309Z,27.9
2017-06-16T16:10:33.021Z,25.8
2017-06-16T16:11:51.716Z,24.4
2017-06-16T16:13:10.437Z,23.1
2017-06-16T16:14:29.130Z,21.9
2017-06-16T16:15:47.804Z,21.1
2017-06-16T16:17:06.475Z,20.4
2017-06-16T16:18:25.183Z,20
2017-06-16T16:19:43.884Z,19.5
2017-06-16T16:21:02.562Z,19.5
2017-06-16T16:22:21.260Z,19.5
2017-06-16T16:23:39.958Z,19.6
2017-06-16T16:24:58.640Z,19.6
2017-06-16T16:26:17.374Z,19.8
2017-06-16T16:27:36.049Z,19.9
2017-06-16T16:28:54.720Z,20.1
2017-06-16T16:30:13.426Z,20.5
2017-06-16T16:31:32.100Z,20.5
2017-06-16T16:32:50.850Z,20.5
2017-06-16T16:34:09.564Z,20.5
2017-06-16T16:35:28.291Z,20.3
2017-06-16T16:36:46.963Z,20.2
2017-06-16T16:38:05.652Z,20.3
2017-06-16T16:39:24.344Z,20.5
2017-06-16T16:40:43.062Z,21.4
2017-06-16T16:42:01.738Z,27.2
2017-06-16T16:43:20.437Z,31.6
2017-06-16T16:44:39.134Z,28.9
2017-06-16T16:45:57.857Z,26.5
2017-06-16T16:47:16.568Z,26
2017-06-16T16:48:35.271Z,24.9
2017-06-16T16:49:53.990Z,23.1
2017-06-16T16:51:12.665Z,21.8
2017-06-16T16:52:31.343Z,21
2017-06-16T16:53:50.045Z,20.6
2017-06-16T16:55:08.735Z,20.2
2017-06-16T16:56:27.425Z,19.9
2017-06-16T16:57:46.128Z,19.5
2017-06-16T16:59:04.801Z,19.1
2017-06-16T17:00:23.471Z,18.8
2017-06-16T17:01:42.145Z,18.4
2017-06-16T17:03:00.827Z,18.1
2017-06-16T17:04:19.531Z,17.9
2017-06-16T17:05:38.203Z,17.7
2017-06-16T17:06:56.918Z,17.5
2017-06-16T17:08:15.618Z,17.2
2017-06-16T17:09:34.347Z,17.1
2017-06-16T17:10:53.023Z,17
2017-06-16T17:12:11.739Z,16.9
2017-06-16T17:13:30.444Z,16.8
2017-06-16T17:14:49.158Z,16.8
2017-06-16T17:16:07.842Z,16.8
2017-06-16T17:17:26.566Z,16.9
2017-06-16T17:18:45.277Z,16.9
2017-06-16T17:20:03.977Z,16.8
2017-06-16T17:21:22.650Z,16.9
2017-06-16T17:22:41.325Z,16.9
2017-06-16T17:23:59.994Z,17
2017-06-16T17:25:18.690Z,17
2017-06-16T17:26:37.442Z,17
2017-06-16T17:27:56.114Z,17
2017-06-16T17:29:14.829Z,17
2017-06-16T17:30:33.523Z,17
2017-06-16T17:31:52.196Z,17.1
2017-06-16T17:33:10.901Z,17.2
2017-06-16T17:34:29.622Z,17.3